sensor_id;sensor_type;location;lat;lon;timestamp;P1;durP1;ratioP1;P2;durP2;ratioP2
12906;SDS011;6521;50.498;8.474;2024-03-02T00:00:13;11.40;;;8.47;;
12906;SDS011;6521;50.498;8.474;2024-03-02T00:02:44;10.63;;;8.23;;
12906;SDS011;6521;50.498;8.474;2024-03-02T00:05:16;13.67;;;8.40;;
12906;SDS011;6521;50.498;8.474;2024-03-02T00:07:55;10.13;;;7.93;;
12906;SDS011;6521;50.498;8.474;2024-03-02T00:10:31;9.70;;;8.00;;
12906;SDS011;6521;50.498;8.474;2024-03-02T00:13:09;11.13;;;8.47;;
12906;SDS011;6521;50.498;8.474;2024-03-02T00:15:41;10.13;;;8.33;;
12906;SDS011;6521;50.498;8.474;2024-03-02T00:18:20;10.77;;;8.27;;
12906;SDS011;6521;50.498;8.474;2024-03-02T00:21:04;12.20;;;8.60;;
12906;SDS011;6521;50.498;8.474;2024-03-02T00:23:36;10.60;;;7.87;;
12906;SDS011;6521;50.498;8.474;2024-03-02T00:26:08;9.37;;;7.83;;
12906;SDS011;6521;50.498;8.474;2024-03-02T00:28:42;10.27;;;8.27;;
12906;SDS011;6521;50.498;8.474;2024-03-02T00:31:14;11.40;;;8.53;;
12906;SDS011;6521;50.498;8.474;2024-03-02T00:33:46;9.60;;;7.53;;
12906;SDS011;6521;50.498;8.474;2024-03-02T00:36:24;10.73;;;8.73;;
12906;SDS011;6521;50.498;8.474;2024-03-02T00:38:57;9.17;;;7.47;;
12906;SDS011;6521;50.498;8.474;2024-03-02T00:41:32;13.47;;;8.53;;
12906;SDS011;6521;50.498;8.474;2024-03-02T00:44:06;10.87;;;8.27;;
12906;SDS011;6521;50.498;8.474;2024-03-02T00:46:40;11.10;;;8.33;;
12906;SDS011;6521;50.498;8.474;2024-03-02T00:49:23;12.17;;;9.47;;
12906;SDS011;6521;50.498;8.474;2024-03-02T00:51:55;12.43;;;9.73;;
12906;SDS011;6521;50.498;8.474;2024-03-02T00:54:28;10.67;;;8.40;;
12906;SDS011;6521;50.498;8.474;2024-03-02T00:57:02;11.87;;;8.77;;
12906;SDS011;6521;50.498;8.474;2024-03-02T00:59:34;10.83;;;8.23;;
12906;SDS011;6521;50.498;8.474;2024-03-02T01:02:12;10.90;;;8.23;;
12906;SDS011;6521;50.498;8.474;2024-03-02T01:04:45;12.00;;;9.17;;
12906;SDS011;6521;50.498;8.474;2024-03-02T01:07:15;10.57;;;8.53;;
12906;SDS011;6521;50.498;8.474;2024-03-02T01:09:49;9.93;;;8.57;;
12906;SDS011;6521;50.498;8.474;2024-03-02T01:12:22;11.27;;;8.63;;
12906;SDS011;6521;50.498;8.474;2024-03-02T01:14:54;10.77;;;8.93;;
12906;SDS011;6521;50.498;8.474;2024-03-02T01:17:25;12.70;;;9.70;;
12906;SDS011;6521;50.498;8.474;2024-03-02T01:19:57;12.77;;;9.77;;
12906;SDS011;6521;50.498;8.474;2024-03-02T01:22:29;11.93;;;9.50;;
12906;SDS011;6521;50.498;8.474;2024-03-02T01:25:00;13.03;;;9.63;;
12906;SDS011;6521;50.498;8.474;2024-03-02T01:27:32;13.03;;;10.40;;
12906;SDS011;6521;50.498;8.474;2024-03-02T01:30:03;13.93;;;9.80;;
12906;SDS011;6521;50.498;8.474;2024-03-02T01:32:34;14.13;;;9.57;;
12906;SDS011;6521;50.498;8.474;2024-03-02T01:35:05;13.10;;;9.93;;
12906;SDS011;6521;50.498;8.474;2024-03-02T01:37:40;12.47;;;9.70;;
12906;SDS011;6521;50.498;8.474;2024-03-02T01:40:11;12.73;;;9.70;;
12906;SDS011;6521;50.498;8.474;2024-03-02T01:42:42;14.13;;;9.87;;
12906;SDS011;6521;50.498;8.474;2024-03-02T01:45:13;11.80;;;9.37;;
12906;SDS011;6521;50.498;8.474;2024-03-02T01:47:47;12.30;;;9.43;;
12906;SDS011;6521;50.498;8.474;2024-03-02T01:50:25;13.43;;;9.67;;
12906;SDS011;6521;50.498;8.474;2024-03-02T01:52:58;12.20;;;9.70;;
12906;SDS011;6521;50.498;8.474;2024-03-02T01:55:30;14.97;;;10.03;;
12906;SDS011;6521;50.498;8.474;2024-03-02T01:58:01;14.87;;;9.17;;
12906;SDS011;6521;50.498;8.474;2024-03-02T02:00:32;13.33;;;10.70;;
12906;SDS011;6521;50.498;8.474;2024-03-02T02:03:03;14.63;;;10.80;;
12906;SDS011;6521;50.498;8.474;2024-03-02T02:05:34;12.97;;;10.33;;
12906;SDS011;6521;50.498;8.474;2024-03-02T02:08:05;13.03;;;11.07;;
12906;SDS011;6521;50.498;8.474;2024-03-02T02:10:36;15.43;;;10.63;;
12906;SDS011;6521;50.498;8.474;2024-03-02T02:13:07;13.70;;;10.87;;
12906;SDS011;6521;50.498;8.474;2024-03-02T02:15:41;12.07;;;10.00;;
12906;SDS011;6521;50.498;8.474;2024-03-02T02:18:11;13.03;;;10.47;;
12906;SDS011;6521;50.498;8.474;2024-03-02T02:20:42;15.60;;;10.83;;
12906;SDS011;6521;50.498;8.474;2024-03-02T02:23:16;13.73;;;10.57;;
12906;SDS011;6521;50.498;8.474;2024-03-02T02:25:47;13.80;;;10.37;;
12906;SDS011;6521;50.498;8.474;2024-03-02T02:28:17;14.03;;;10.40;;
12906;SDS011;6521;50.498;8.474;2024-03-02T02:30:48;13.73;;;11.30;;
12906;SDS011;6521;50.498;8.474;2024-03-02T02:33:21;14.43;;;11.20;;
12906;SDS011;6521;50.498;8.474;2024-03-02T02:35:53;14.53;;;10.93;;
12906;SDS011;6521;50.498;8.474;2024-03-02T02:38:23;15.20;;;11.37;;
12906;SDS011;6521;50.498;8.474;2024-03-02T02:40:55;16.13;;;12.43;;
12906;SDS011;6521;50.498;8.474;2024-03-02T02:43:26;16.93;;;12.07;;
12906;SDS011;6521;50.498;8.474;2024-03-02T02:45:56;15.20;;;12.00;;
12906;SDS011;6521;50.498;8.474;2024-03-02T02:48:27;17.50;;;11.63;;
12906;SDS011;6521;50.498;8.474;2024-03-02T02:50:58;13.53;;;11.20;;
12906;SDS011;6521;50.498;8.474;2024-03-02T02:53:30;13.83;;;10.50;;
12906;SDS011;6521;50.498;8.474;2024-03-02T02:56:01;14.47;;;12.03;;
12906;SDS011;6521;50.498;8.474;2024-03-02T02:58:32;15.87;;;11.30;;
12906;SDS011;6521;50.498;8.474;2024-03-02T03:01:03;18.10;;;12.17;;
12906;SDS011;6521;50.498;8.474;2024-03-02T03:03:34;17.57;;;12.27;;
12906;SDS011;6521;50.498;8.474;2024-03-02T03:06:05;15.27;;;11.67;;
12906;SDS011;6521;50.498;8.474;2024-03-02T03:08:36;15.40;;;10.83;;
12906;SDS011;6521;50.498;8.474;2024-03-02T03:11:06;14.43;;;10.77;;
12906;SDS011;6521;50.498;8.474;2024-03-02T03:13:41;14.30;;;10.83;;
12906;SDS011;6521;50.498;8.474;2024-03-02T03:16:12;17.57;;;11.67;;
12906;SDS011;6521;50.498;8.474;2024-03-02T03:18:43;15.00;;;11.63;;
12906;SDS011;6521;50.498;8.474;2024-03-02T03:21:13;16.80;;;12.17;;
12906;SDS011;6521;50.498;8.474;2024-03-02T03:23:46;14.83;;;11.17;;
12906;SDS011;6521;50.498;8.474;2024-03-02T03:26:17;15.80;;;11.17;;
12906;SDS011;6521;50.498;8.474;2024-03-02T03:28:48;14.17;;;11.17;;
12906;SDS011;6521;50.498;8.474;2024-03-02T03:31:19;13.73;;;10.97;;
12906;SDS011;6521;50.498;8.474;2024-03-02T03:33:49;15.80;;;12.13;;
12906;SDS011;6521;50.498;8.474;2024-03-02T03:36:20;12.57;;;9.77;;
12906;SDS011;6521;50.498;8.474;2024-03-02T03:38:52;15.30;;;11.20;;
12906;SDS011;6521;50.498;8.474;2024-03-02T03:41:24;20.03;;;11.37;;
12906;SDS011;6521;50.498;8.474;2024-03-02T03:43:55;12.97;;;10.50;;
12906;SDS011;6521;50.498;8.474;2024-03-02T03:46:26;14.13;;;10.40;;
12906;SDS011;6521;50.498;8.474;2024-03-02T03:48:57;16.47;;;11.60;;
12906;SDS011;6521;50.498;8.474;2024-03-02T03:51:28;21.30;;;13.63;;
12906;SDS011;6521;50.498;8.474;2024-03-02T03:53:59;16.03;;;13.00;;
12906;SDS011;6521;50.498;8.474;2024-03-02T03:56:31;18.30;;;13.23;;
12906;SDS011;6521;50.498;8.474;2024-03-02T03:59:02;16.90;;;12.77;;
12906;SDS011;6521;50.498;8.474;2024-03-02T04:01:35;17.90;;;13.27;;
12906;SDS011;6521;50.498;8.474;2024-03-02T04:04:07;15.60;;;12.67;;
12906;SDS011;6521;50.498;8.474;2024-03-02T04:06:37;16.80;;;12.37;;
12906;SDS011;6521;50.498;8.474;2024-03-02T04:09:11;18.47;;;12.17;;
12906;SDS011;6521;50.498;8.474;2024-03-02T04:11:42;16.47;;;11.60;;
12906;SDS011;6521;50.498;8.474;2024-03-02T04:14:13;15.37;;;11.63;;
12906;SDS011;6521;50.498;8.474;2024-03-02T04:16:44;15.93;;;12.13;;
12906;SDS011;6521;50.498;8.474;2024-03-02T04:19:14;14.97;;;11.70;;
12906;SDS011;6521;50.498;8.474;2024-03-02T04:21:45;14.87;;;11.43;;
12906;SDS011;6521;50.498;8.474;2024-03-02T04:24:18;16.27;;;11.50;;
12906;SDS011;6521;50.498;8.474;2024-03-02T04:26:49;16.30;;;11.80;;
12906;SDS011;6521;50.498;8.474;2024-03-02T04:29:20;17.87;;;12.30;;
12906;SDS011;6521;50.498;8.474;2024-03-02T04:31:50;19.80;;;12.53;;
12906;SDS011;6521;50.498;8.474;2024-03-02T04:34:21;18.30;;;12.03;;
12906;SDS011;6521;50.498;8.474;2024-03-02T04:36:53;24.27;;;13.50;;
12906;SDS011;6521;50.498;8.474;2024-03-02T04:39:24;20.30;;;13.13;;
12906;SDS011;6521;50.498;8.474;2024-03-02T04:41:55;21.97;;;13.57;;
12906;SDS011;6521;50.498;8.474;2024-03-02T04:44:25;20.30;;;12.43;;
12906;SDS011;6521;50.498;8.474;2024-03-02T04:46:56;17.40;;;11.87;;
12906;SDS011;6521;50.498;8.474;2024-03-02T04:49:27;19.03;;;12.57;;
12906;SDS011;6521;50.498;8.474;2024-03-02T04:52:00;18.60;;;12.03;;
12906;SDS011;6521;50.498;8.474;2024-03-02T04:54:30;18.30;;;12.53;;
12906;SDS011;6521;50.498;8.474;2024-03-02T04:57:03;18.23;;;11.23;;
12906;SDS011;6521;50.498;8.474;2024-03-02T04:59:37;18.17;;;11.53;;
12906;SDS011;6521;50.498;8.474;2024-03-02T05:02:08;24.57;;;12.23;;
12906;SDS011;6521;50.498;8.474;2024-03-02T05:04:38;22.37;;;12.60;;
12906;SDS011;6521;50.498;8.474;2024-03-02T05:07:09;17.17;;;11.80;;
12906;SDS011;6521;50.498;8.474;2024-03-02T05:09:40;18.30;;;12.70;;
12906;SDS011;6521;50.498;8.474;2024-03-02T05:12:11;15.23;;;11.53;;
12906;SDS011;6521;50.498;8.474;2024-03-02T05:14:47;15.40;;;11.50;;
12906;SDS011;6521;50.498;8.474;2024-03-02T05:17:21;16.60;;;12.20;;
12906;SDS011;6521;50.498;8.474;2024-03-02T05:19:53;16.73;;;12.23;;
12906;SDS011;6521;50.498;8.474;2024-03-02T05:22:24;16.47;;;11.53;;
12906;SDS011;6521;50.498;8.474;2024-03-02T05:24:55;17.27;;;11.63;;
12906;SDS011;6521;50.498;8.474;2024-03-02T05:27:27;14.90;;;10.53;;
12906;SDS011;6521;50.498;8.474;2024-03-02T05:29:58;15.37;;;11.00;;
12906;SDS011;6521;50.498;8.474;2024-03-02T05:32:31;16.93;;;11.53;;
12906;SDS011;6521;50.498;8.474;2024-03-02T05:35:01;16.20;;;11.50;;
12906;SDS011;6521;50.498;8.474;2024-03-02T05:37:33;18.13;;;12.23;;
12906;SDS011;6521;50.498;8.474;2024-03-02T05:40:04;16.57;;;11.57;;
12906;SDS011;6521;50.498;8.474;2024-03-02T05:42:36;19.80;;;11.93;;
12906;SDS011;6521;50.498;8.474;2024-03-02T05:45:07;17.17;;;12.00;;
12906;SDS011;6521;50.498;8.474;2024-03-02T05:47:38;18.97;;;12.13;;
12906;SDS011;6521;50.498;8.474;2024-03-02T05:50:09;17.33;;;11.43;;
12906;SDS011;6521;50.498;8.474;2024-03-02T05:52:40;16.83;;;11.23;;
12906;SDS011;6521;50.498;8.474;2024-03-02T05:55:10;15.30;;;10.87;;
12906;SDS011;6521;50.498;8.474;2024-03-02T05:57:41;17.33;;;11.07;;
12906;SDS011;6521;50.498;8.474;2024-03-02T06:00:12;16.20;;;11.67;;
12906;SDS011;6521;50.498;8.474;2024-03-02T06:02:44;18.83;;;11.50;;
12906;SDS011;6521;50.498;8.474;2024-03-02T06:05:17;16.97;;;10.37;;
12906;SDS011;6521;50.498;8.474;2024-03-02T06:07:50;17.70;;;11.50;;
12906;SDS011;6521;50.498;8.474;2024-03-02T06:10:21;19.13;;;11.53;;
12906;SDS011;6521;50.498;8.474;2024-03-02T06:12:52;17.83;;;11.50;;
12906;SDS011;6521;50.498;8.474;2024-03-02T06:15:23;17.40;;;11.00;;
12906;SDS011;6521;50.498;8.474;2024-03-02T06:17:55;14.67;;;10.93;;
12906;SDS011;6521;50.498;8.474;2024-03-02T06:20:27;15.17;;;10.57;;
12906;SDS011;6521;50.498;8.474;2024-03-02T06:23:01;15.80;;;9.50;;
12906;SDS011;6521;50.498;8.474;2024-03-02T06:25:32;21.37;;;11.10;;
12906;SDS011;6521;50.498;8.474;2024-03-02T06:28:02;13.43;;;9.87;;
12906;SDS011;6521;50.498;8.474;2024-03-02T06:30:34;16.90;;;10.60;;
12906;SDS011;6521;50.498;8.474;2024-03-02T06:33:05;17.87;;;10.33;;
12906;SDS011;6521;50.498;8.474;2024-03-02T06:35:36;15.97;;;11.17;;
12906;SDS011;6521;50.498;8.474;2024-03-02T06:38:08;16.07;;;11.60;;
12906;SDS011;6521;50.498;8.474;2024-03-02T06:40:39;16.87;;;12.57;;
12906;SDS011;6521;50.498;8.474;2024-03-02T06:43:11;18.40;;;11.73;;
12906;SDS011;6521;50.498;8.474;2024-03-02T06:45:42;21.10;;;12.17;;
12906;SDS011;6521;50.498;8.474;2024-03-02T06:48:15;26.80;;;11.93;;
12906;SDS011;6521;50.498;8.474;2024-03-02T06:50:50;18.83;;;12.70;;
12906;SDS011;6521;50.498;8.474;2024-03-02T06:53:22;19.77;;;13.87;;
12906;SDS011;6521;50.498;8.474;2024-03-02T06:55:53;18.97;;;13.87;;
12906;SDS011;6521;50.498;8.474;2024-03-02T06:58:24;21.23;;;13.80;;
12906;SDS011;6521;50.498;8.474;2024-03-02T07:00:54;25.10;;;14.03;;
12906;SDS011;6521;50.498;8.474;2024-03-02T07:03:25;20.60;;;14.63;;
12906;SDS011;6521;50.498;8.474;2024-03-02T07:05:56;22.67;;;14.57;;
12906;SDS011;6521;50.498;8.474;2024-03-02T07:08:27;17.20;;;13.40;;
12906;SDS011;6521;50.498;8.474;2024-03-02T07:11:05;20.73;;;12.90;;
12906;SDS011;6521;50.498;8.474;2024-03-02T07:13:36;16.53;;;12.37;;
12906;SDS011;6521;50.498;8.474;2024-03-02T07:16:09;15.73;;;12.33;;
12906;SDS011;6521;50.498;8.474;2024-03-02T07:18:58;16.33;;;11.77;;
12906;SDS011;6521;50.498;8.474;2024-03-02T07:21:31;17.00;;;12.03;;
12906;SDS011;6521;50.498;8.474;2024-03-02T07:24:03;26.17;;;12.77;;
12906;SDS011;6521;50.498;8.474;2024-03-02T07:26:36;18.90;;;10.70;;
12906;SDS011;6521;50.498;8.474;2024-03-02T07:29:07;17.23;;;11.27;;
12906;SDS011;6521;50.498;8.474;2024-03-02T07:31:38;16.40;;;11.50;;
12906;SDS011;6521;50.498;8.474;2024-03-02T07:34:10;16.70;;;11.17;;
12906;SDS011;6521;50.498;8.474;2024-03-02T07:36:42;15.23;;;11.43;;
12906;SDS011;6521;50.498;8.474;2024-03-02T07:39:13;16.33;;;10.80;;
12906;SDS011;6521;50.498;8.474;2024-03-02T07:41:44;18.50;;;11.27;;
12906;SDS011;6521;50.498;8.474;2024-03-02T07:44:16;14.40;;;10.27;;
12906;SDS011;6521;50.498;8.474;2024-03-02T07:46:49;12.87;;;9.10;;
12906;SDS011;6521;50.498;8.474;2024-03-02T07:49:22;10.73;;;8.60;;
12906;SDS011;6521;50.498;8.474;2024-03-02T07:51:54;11.47;;;9.30;;
12906;SDS011;6521;50.498;8.474;2024-03-02T07:54:28;11.97;;;8.53;;
12906;SDS011;6521;50.498;8.474;2024-03-02T07:56:58;14.87;;;10.17;;
12906;SDS011;6521;50.498;8.474;2024-03-02T07:59:31;16.73;;;10.57;;
12906;SDS011;6521;50.498;8.474;2024-03-02T08:02:04;15.07;;;11.03;;
12906;SDS011;6521;50.498;8.474;2024-03-02T08:04:35;10.73;;;9.33;;
12906;SDS011;6521;50.498;8.474;2024-03-02T08:07:07;11.33;;;9.37;;
12906;SDS011;6521;50.498;8.474;2024-03-02T08:09:39;15.37;;;11.17;;
12906;SDS011;6521;50.498;8.474;2024-03-02T08:12:10;13.47;;;10.50;;
12906;SDS011;6521;50.498;8.474;2024-03-02T08:14:41;12.77;;;10.30;;
12906;SDS011;6521;50.498;8.474;2024-03-02T08:17:12;13.90;;;10.50;;
12906;SDS011;6521;50.498;8.474;2024-03-02T08:19:42;12.27;;;9.23;;
12906;SDS011;6521;50.498;8.474;2024-03-02T08:22:14;12.83;;;9.90;;
12906;SDS011;6521;50.498;8.474;2024-03-02T08:24:45;15.07;;;10.40;;
12906;SDS011;6521;50.498;8.474;2024-03-02T08:27:16;14.93;;;11.27;;
12906;SDS011;6521;50.498;8.474;2024-03-02T08:29:49;12.37;;;8.20;;
12906;SDS011;6521;50.498;8.474;2024-03-02T08:32:20;11.03;;;8.90;;
12906;SDS011;6521;50.498;8.474;2024-03-02T08:34:50;17.53;;;13.87;;
12906;SDS011;6521;50.498;8.474;2024-03-02T08:37:21;16.27;;;13.37;;
12906;SDS011;6521;50.498;8.474;2024-03-02T08:39:52;15.87;;;13.23;;
12906;SDS011;6521;50.498;8.474;2024-03-02T08:42:23;16.40;;;12.10;;
12906;SDS011;6521;50.498;8.474;2024-03-02T08:44:57;18.17;;;12.27;;
12906;SDS011;6521;50.498;8.474;2024-03-02T08:47:28;16.93;;;10.43;;
12906;SDS011;6521;50.498;8.474;2024-03-02T08:49:59;13.23;;;10.27;;
12906;SDS011;6521;50.498;8.474;2024-03-02T08:52:35;11.13;;;9.13;;
12906;SDS011;6521;50.498;8.474;2024-03-02T08:55:08;10.37;;;7.43;;
12906;SDS011;6521;50.498;8.474;2024-03-02T08:57:44;14.93;;;7.83;;
12906;SDS011;6521;50.498;8.474;2024-03-02T09:00:15;10.13;;;7.90;;
12906;SDS011;6521;50.498;8.474;2024-03-02T09:02:48;8.57;;;7.50;;
12906;SDS011;6521;50.498;8.474;2024-03-02T09:05:21;11.10;;;7.60;;
12906;SDS011;6521;50.498;8.474;2024-03-02T09:07:52;9.40;;;6.93;;
12906;SDS011;6521;50.498;8.474;2024-03-02T09:10:23;10.87;;;7.67;;
12906;SDS011;6521;50.498;8.474;2024-03-02T09:12:54;11.43;;;7.90;;
12906;SDS011;6521;50.498;8.474;2024-03-02T09:15:24;9.83;;;7.20;;
12906;SDS011;6521;50.498;8.474;2024-03-02T09:17:56;12.07;;;8.53;;
12906;SDS011;6521;50.498;8.474;2024-03-02T09:20:27;8.67;;;7.00;;
12906;SDS011;6521;50.498;8.474;2024-03-02T09:22:57;9.83;;;7.33;;
12906;SDS011;6521;50.498;8.474;2024-03-02T09:25:28;8.27;;;6.67;;
12906;SDS011;6521;50.498;8.474;2024-03-02T09:27:59;8.70;;;5.87;;
12906;SDS011;6521;50.498;8.474;2024-03-02T09:30:30;10.27;;;5.43;;
12906;SDS011;6521;50.498;8.474;2024-03-02T09:33:00;8.50;;;5.53;;
12906;SDS011;6521;50.498;8.474;2024-03-02T09:35:31;5.37;;;4.10;;
12906;SDS011;6521;50.498;8.474;2024-03-02T09:38:03;9.53;;;4.57;;
12906;SDS011;6521;50.498;8.474;2024-03-02T09:40:35;7.33;;;4.40;;
12906;SDS011;6521;50.498;8.474;2024-03-02T09:43:07;4.63;;;4.13;;
12906;SDS011;6521;50.498;8.474;2024-03-02T09:45:38;5.40;;;3.93;;
12906;SDS011;6521;50.498;8.474;2024-03-02T09:48:09;9.03;;;4.23;;
12906;SDS011;6521;50.498;8.474;2024-03-02T09:50:41;6.03;;;4.20;;
12906;SDS011;6521;50.498;8.474;2024-03-02T09:53:16;7.93;;;4.47;;
12906;SDS011;6521;50.498;8.474;2024-03-02T09:55:47;4.70;;;3.30;;
12906;SDS011;6521;50.498;8.474;2024-03-02T09:58:18;4.83;;;3.40;;
12906;SDS011;6521;50.498;8.474;2024-03-02T10:00:49;7.03;;;3.73;;
12906;SDS011;6521;50.498;8.474;2024-03-02T10:03:20;4.40;;;2.70;;
12906;SDS011;6521;50.498;8.474;2024-03-02T10:05:56;3.87;;;3.13;;
12906;SDS011;6521;50.498;8.474;2024-03-02T10:08:54;5.77;;;2.80;;
12906;SDS011;6521;50.498;8.474;2024-03-02T10:11:33;4.73;;;2.80;;
12906;SDS011;6521;50.498;8.474;2024-03-02T10:14:12;7.53;;;2.73;;
12906;SDS011;6521;50.498;8.474;2024-03-02T10:16:45;2.90;;;2.50;;
12906;SDS011;6521;50.498;8.474;2024-03-02T10:19:16;3.87;;;2.43;;
12906;SDS011;6521;50.498;8.474;2024-03-02T10:21:52;5.90;;;3.08;;
12906;SDS011;6521;50.498;8.474;2024-03-02T10:24:24;4.72;;;2.53;;
12906;SDS011;6521;50.498;8.474;2024-03-02T10:26:56;3.97;;;2.55;;
12906;SDS011;6521;50.498;8.474;2024-03-02T10:29:29;8.48;;;2.50;;
12906;SDS011;6521;50.498;8.474;2024-03-02T10:32:01;3.33;;;2.55;;
12906;SDS011;6521;50.498;8.474;2024-03-02T10:34:33;3.58;;;2.28;;
12906;SDS011;6521;50.498;8.474;2024-03-02T10:37:04;3.42;;;2.05;;
12906;SDS011;6521;50.498;8.474;2024-03-02T10:39:37;2.72;;;2.15;;
12906;SDS011;6521;50.498;8.474;2024-03-02T10:42:10;2.42;;;2.17;;
12906;SDS011;6521;50.498;8.474;2024-03-02T10:44:42;1.80;;;1.70;;
12906;SDS011;6521;50.498;8.474;2024-03-02T10:47:13;2.30;;;1.73;;
12906;SDS011;6521;50.498;8.474;2024-03-02T10:49:45;4.32;;;2.22;;
12906;SDS011;6521;50.498;8.474;2024-03-02T10:52:17;5.90;;;2.42;;
12906;SDS011;6521;50.498;8.474;2024-03-02T10:54:49;4.80;;;1.77;;
12906;SDS011;6521;50.498;8.474;2024-03-02T10:57:21;9.70;;;3.40;;
12906;SDS011;6521;50.498;8.474;2024-03-02T10:59:56;5.10;;;2.33;;
12906;SDS011;6521;50.498;8.474;2024-03-02T11:02:32;3.40;;;2.30;;
12906;SDS011;6521;50.498;8.474;2024-03-02T11:05:06;6.10;;;2.40;;
12906;SDS011;6521;50.498;8.474;2024-03-02T11:07:39;9.93;;;2.95;;
12906;SDS011;6521;50.498;8.474;2024-03-02T11:10:14;4.90;;;3.20;;
12906;SDS011;6521;50.498;8.474;2024-03-02T11:12:53;6.43;;;3.22;;
12906;SDS011;6521;50.498;8.474;2024-03-02T11:15:28;3.83;;;3.20;;
12906;SDS011;6521;50.498;8.474;2024-03-02T11:18:00;6.05;;;2.60;;
12906;SDS011;6521;50.498;8.474;2024-03-02T11:20:37;2.88;;;2.20;;
12906;SDS011;6521;50.498;8.474;2024-03-02T11:23:10;2.78;;;2.15;;
12906;SDS011;6521;50.498;8.474;2024-03-02T11:25:41;3.33;;;2.70;;
12906;SDS011;6521;50.498;8.474;2024-03-02T11:28:12;3.40;;;2.30;;
12906;SDS011;6521;50.498;8.474;2024-03-02T11:33:22;3.03;;;2.35;;
12906;SDS011;6521;50.498;8.474;2024-03-02T11:35:54;2.30;;;2.10;;
12906;SDS011;6521;50.498;8.474;2024-03-02T11:38:35;4.43;;;2.50;;
12906;SDS011;6521;50.498;8.474;2024-03-02T11:41:07;3.75;;;3.22;;
12906;SDS011;6521;50.498;8.474;2024-03-02T11:43:39;3.85;;;2.60;;
12906;SDS011;6521;50.498;8.474;2024-03-02T11:46:12;3.55;;;2.50;;
12906;SDS011;6521;50.498;8.474;2024-03-02T11:48:43;2.55;;;2.10;;
12906;SDS011;6521;50.498;8.474;2024-03-02T11:51:14;3.50;;;2.22;;
12906;SDS011;6521;50.498;8.474;2024-03-02T11:53:44;4.10;;;2.17;;
12906;SDS011;6521;50.498;8.474;2024-03-02T11:56:19;4.75;;;2.30;;
12906;SDS011;6521;50.498;8.474;2024-03-02T11:58:53;2.30;;;1.90;;
12906;SDS011;6521;50.498;8.474;2024-03-02T12:01:26;2.35;;;2.05;;
12906;SDS011;6521;50.498;8.474;2024-03-02T12:03:57;2.50;;;1.90;;
12906;SDS011;6521;50.498;8.474;2024-03-02T12:06:29;2.58;;;1.92;;
12906;SDS011;6521;50.498;8.474;2024-03-02T12:09:00;2.80;;;1.77;;
12906;SDS011;6521;50.498;8.474;2024-03-02T12:11:31;1.70;;;1.50;;
12906;SDS011;6521;50.498;8.474;2024-03-02T12:14:02;2.03;;;1.83;;
12906;SDS011;6521;50.498;8.474;2024-03-02T12:16:34;1.65;;;1.50;;
12906;SDS011;6521;50.498;8.474;2024-03-02T12:19:08;1.88;;;1.70;;
12906;SDS011;6521;50.498;8.474;2024-03-02T12:21:39;3.00;;;1.50;;
12906;SDS011;6521;50.498;8.474;2024-03-02T12:24:10;1.85;;;1.58;;
12906;SDS011;6521;50.498;8.474;2024-03-02T12:26:41;2.95;;;1.58;;
12906;SDS011;6521;50.498;8.474;2024-03-02T12:29:12;1.75;;;1.60;;
12906;SDS011;6521;50.498;8.474;2024-03-02T12:31:42;1.63;;;1.35;;
12906;SDS011;6521;50.498;8.474;2024-03-02T12:34:16;1.70;;;1.45;;
12906;SDS011;6521;50.498;8.474;2024-03-02T12:36:47;2.05;;;1.33;;
12906;SDS011;6521;50.498;8.474;2024-03-02T12:39:20;1.40;;;1.30;;
12906;SDS011;6521;50.498;8.474;2024-03-02T12:41:55;1.30;;;1.00;;
12906;SDS011;6521;50.498;8.474;2024-03-02T12:44:27;1.77;;;1.33;;
12906;SDS011;6521;50.498;8.474;2024-03-02T12:46:58;2.25;;;1.15;;
12906;SDS011;6521;50.498;8.474;2024-03-02T12:49:29;1.48;;;1.17;;
12906;SDS011;6521;50.498;8.474;2024-03-02T12:52:01;1.75;;;1.60;;
12906;SDS011;6521;50.498;8.474;2024-03-02T12:54:33;2.47;;;2.00;;
12906;SDS011;6521;50.498;8.474;2024-03-02T12:57:04;3.05;;;2.13;;
12906;SDS011;6521;50.498;8.474;2024-03-02T12:59:35;2.03;;;1.77;;
12906;SDS011;6521;50.498;8.474;2024-03-02T13:02:08;3.55;;;2.00;;
12906;SDS011;6521;50.498;8.474;2024-03-02T13:04:54;1.95;;;1.75;;
12906;SDS011;6521;50.498;8.474;2024-03-02T13:07:25;2.13;;;1.83;;
12906;SDS011;6521;50.498;8.474;2024-03-02T13:09:57;2.25;;;1.85;;
12906;SDS011;6521;50.498;8.474;2024-03-02T13:12:29;1.90;;;1.80;;
12906;SDS011;6521;50.498;8.474;2024-03-02T13:15:02;2.88;;;2.00;;
12906;SDS011;6521;50.498;8.474;2024-03-02T13:17:34;3.05;;;1.98;;
12906;SDS011;6521;50.498;8.474;2024-03-02T13:20:05;3.35;;;2.13;;
12906;SDS011;6521;50.498;8.474;2024-03-02T13:22:40;3.35;;;2.95;;
12906;SDS011;6521;50.498;8.474;2024-03-02T13:25:11;4.70;;;2.67;;
12906;SDS011;6521;50.498;8.474;2024-03-02T13:27:42;4.07;;;2.97;;
12906;SDS011;6521;50.498;8.474;2024-03-02T13:30:14;3.67;;;2.75;;
12906;SDS011;6521;50.498;8.474;2024-03-02T13:32:45;3.10;;;2.80;;
12906;SDS011;6521;50.498;8.474;2024-03-02T13:35:18;6.05;;;3.72;;
12906;SDS011;6521;50.498;8.474;2024-03-02T13:37:49;3.58;;;2.63;;
12906;SDS011;6521;50.498;8.474;2024-03-02T13:40:20;9.65;;;2.80;;
12906;SDS011;6521;50.498;8.474;2024-03-02T13:42:53;4.32;;;2.70;;
12906;SDS011;6521;50.498;8.474;2024-03-02T13:45:24;2.60;;;2.25;;
12906;SDS011;6521;50.498;8.474;2024-03-02T13:47:55;3.03;;;2.38;;
12906;SDS011;6521;50.498;8.474;2024-03-02T13:50:26;3.08;;;2.65;;
12906;SDS011;6521;50.498;8.474;2024-03-02T13:52:57;4.70;;;2.97;;
12906;SDS011;6521;50.498;8.474;2024-03-02T13:55:27;3.40;;;2.33;;
12906;SDS011;6521;50.498;8.474;2024-03-02T13:57:59;4.07;;;2.90;;
12906;SDS011;6521;50.498;8.474;2024-03-02T14:00:30;3.50;;;3.03;;
12906;SDS011;6521;50.498;8.474;2024-03-02T14:03:01;6.82;;;2.30;;
12906;SDS011;6521;50.498;8.474;2024-03-02T14:05:33;3.10;;;2.35;;
12906;SDS011;6521;50.498;8.474;2024-03-02T14:08:04;2.90;;;2.58;;
12906;SDS011;6521;50.498;8.474;2024-03-02T14:10:35;2.65;;;2.35;;
12906;SDS011;6521;50.498;8.474;2024-03-02T14:13:07;4.38;;;2.50;;
12906;SDS011;6521;50.498;8.474;2024-03-02T14:15:37;3.10;;;2.80;;
12906;SDS011;6521;50.498;8.474;2024-03-02T14:18:09;4.97;;;2.70;;
12906;SDS011;6521;50.498;8.474;2024-03-02T14:20:44;3.55;;;2.88;;
12906;SDS011;6521;50.498;8.474;2024-03-02T14:23:14;3.63;;;2.75;;
12906;SDS011;6521;50.498;8.474;2024-03-02T14:25:47;3.08;;;2.78;;
12906;SDS011;6521;50.498;8.474;2024-03-02T14:28:18;3.10;;;2.55;;
12906;SDS011;6521;50.498;8.474;2024-03-02T14:30:50;3.35;;;2.67;;
12906;SDS011;6521;50.498;8.474;2024-03-02T14:33:21;3.10;;;2.80;;
12906;SDS011;6521;50.498;8.474;2024-03-02T14:35:52;3.25;;;2.67;;
12906;SDS011;6521;50.498;8.474;2024-03-02T14:38:23;3.60;;;2.63;;
12906;SDS011;6521;50.498;8.474;2024-03-02T14:40:53;4.07;;;2.60;;
12906;SDS011;6521;50.498;8.474;2024-03-02T14:43:24;2.85;;;2.30;;
12906;SDS011;6521;50.498;8.474;2024-03-02T14:45:55;5.20;;;2.92;;
12906;SDS011;6521;50.498;8.474;2024-03-02T14:48:29;3.47;;;2.90;;
12906;SDS011;6521;50.498;8.474;2024-03-02T14:51:00;5.30;;;2.92;;
12906;SDS011;6521;50.498;8.474;2024-03-02T14:53:32;2.67;;;2.45;;
12906;SDS011;6521;50.498;8.474;2024-03-02T14:56:03;4.25;;;3.00;;
12906;SDS011;6521;50.498;8.474;2024-03-02T14:58:35;7.20;;;3.42;;
12906;SDS011;6521;50.498;8.474;2024-03-02T15:01:07;4.53;;;3.10;;
12906;SDS011;6521;50.498;8.474;2024-03-02T15:03:39;5.20;;;2.95;;
12906;SDS011;6521;50.498;8.474;2024-03-02T15:06:10;5.90;;;2.60;;
12906;SDS011;6521;50.498;8.474;2024-03-02T15:08:41;3.45;;;2.67;;
12906;SDS011;6521;50.498;8.474;2024-03-02T15:11:12;2.70;;;2.50;;
12906;SDS011;6521;50.498;8.474;2024-03-02T15:13:43;4.13;;;2.80;;
12906;SDS011;6521;50.498;8.474;2024-03-02T15:16:14;3.78;;;2.80;;
12906;SDS011;6521;50.498;8.474;2024-03-02T15:18:45;4.75;;;2.58;;